createdAt,value
2023-09-23T00:01:36.164Z,3.40
2023-09-23T00:04:03.029Z,3.88
2023-09-23T00:06:29.743Z,3.47
2023-09-23T00:08:57.291Z,4.22
2023-09-23T00:11:24.034Z,2.72
2023-09-23T00:13:50.777Z,4.25
2023-09-23T00:16:17.581Z,4.57
2023-09-23T00:18:44.596Z,3.33
2023-09-23T00:21:13.064Z,4.68
2023-09-23T00:23:40.050Z,4.85
2023-09-23T00:26:08.236Z,5.07
2023-09-23T00:28:35.575Z,3.80
2023-09-23T00:31:07.177Z,4.72
2023-09-23T00:33:39.049Z,4.15
2023-09-23T00:36:07.504Z,6.47
2023-09-23T00:38:34.533Z,5.00
2023-09-23T00:41:02.722Z,3.45
2023-09-23T00:43:29.312Z,5.30
2023-09-23T00:45:56.189Z,3.58
2023-09-23T00:48:23.531Z,4.45
2023-09-23T00:50:51.904Z,5.35
2023-09-23T00:53:18.513Z,3.33
2023-09-23T00:55:48.439Z,4.13
2023-09-23T00:58:16.062Z,2.60
2023-09-23T01:00:45.435Z,3.55
2023-09-23T01:03:12.435Z,3.95
2023-09-23T01:05:42.984Z,4.53
2023-09-23T01:08:13.483Z,3.30
2023-09-23T01:10:40.858Z,4.18
2023-09-23T01:13:11.117Z,3.05
2023-09-23T01:15:45.059Z,2.33
2023-09-23T01:18:25.753Z,1.67
2023-09-23T01:20:52.585Z,1.65
2023-09-23T01:23:19.183Z,2.75
2023-09-23T01:25:45.961Z,1.73
2023-09-23T01:28:13.186Z,1.77
2023-09-23T01:30:41.685Z,3.08
2023-09-23T01:33:10.131Z,2.17
2023-09-23T01:35:37.579Z,2.28
2023-09-23T01:38:07.455Z,2.67
2023-09-23T01:40:37.244Z,5.60
2023-09-23T01:43:05.202Z,3.33
2023-09-23T01:45:32.993Z,2.17
2023-09-23T01:47:59.842Z,2.83
2023-09-23T01:50:27.956Z,2.15
2023-09-23T01:52:57.256Z,4.00
2023-09-23T01:55:23.864Z,3.95
2023-09-23T01:57:50.477Z,2.88
2023-09-23T02:00:25.471Z,3.92
2023-09-23T02:02:55.373Z,4.72
2023-09-23T02:05:28.502Z,4.82
2023-09-23T02:07:56.211Z,5.85
2023-09-23T02:10:25.284Z,8.00
2023-09-23T02:12:51.845Z,5.72
2023-09-23T02:15:18.540Z,7.45
2023-09-23T02:17:49.343Z,6.63
2023-09-23T02:20:21.309Z,9.55
2023-09-23T02:22:56.896Z,8.18
2023-09-23T02:25:27.493Z,5.80
2023-09-23T02:27:54.837Z,7.63
2023-09-23T02:30:23.117Z,5.45
2023-09-23T02:32:49.765Z,9.35
2023-09-23T02:35:17.548Z,7.43
2023-09-23T02:37:45.796Z,7.07
2023-09-23T02:40:13.586Z,7.00
2023-09-23T02:42:44.237Z,6.80
2023-09-23T02:45:13.338Z,7.43
2023-09-23T02:47:41.246Z,6.80
2023-09-23T02:50:11.071Z,9.50
2023-09-23T02:52:40.216Z,6.45
2023-09-23T02:55:08.803Z,6.30
2023-09-23T02:57:39.136Z,6.30
2023-09-23T03:00:21.647Z,9.77
2023-09-23T03:02:54.037Z,5.95
2023-09-23T03:05:26.999Z,7.68
2023-09-23T03:08:00.451Z,6.65
2023-09-23T03:10:35.643Z,8.30
2023-09-23T03:13:13.311Z,6.75
2023-09-23T03:15:53.942Z,7.38
2023-09-23T03:18:30.449Z,7.53
2023-09-23T03:20:59.117Z,6.95
2023-09-23T03:23:25.713Z,5.90
2023-09-23T03:25:52.735Z,6.20
2023-09-23T03:28:19.340Z,6.95
2023-09-23T03:30:50.094Z,6.28
2023-09-23T03:33:20.288Z,6.68
2023-09-23T03:35:48.662Z,9.48
2023-09-23T03:38:16.616Z,7.35
2023-09-23T03:40:54.256Z,7.43
2023-09-23T03:43:22.363Z,9.95
2023-09-23T03:45:49.371Z,6.53
2023-09-23T03:48:16.170Z,6.95
2023-09-23T03:50:42.705Z,12.55
2023-09-23T03:53:12.104Z,7.57
2023-09-23T03:55:39.819Z,7.28
2023-09-23T03:58:06.750Z,9.25
2023-09-23T04:00:35.233Z,12.02
2023-09-23T04:03:01.940Z,9.23
2023-09-23T04:05:32.195Z,11.73
2023-09-23T04:07:59.374Z,8.68
2023-09-23T04:10:26.226Z,8.75
2023-09-23T04:12:54.312Z,11.57
2023-09-23T04:15:22.395Z,9.55
2023-09-23T04:17:49.269Z,10.02
2023-09-23T04:20:16.012Z,9.02
2023-09-23T04:22:43.394Z,12.13
2023-09-23T04:25:10.322Z,13.27
2023-09-23T04:27:37.932Z,12.95
2023-09-23T04:30:10.038Z,11.18
2023-09-23T04:32:37.593Z,13.70
2023-09-23T04:35:05.086Z,16.10
2023-09-23T04:37:31.727Z,14.38
2023-09-23T04:39:58.662Z,16.98
2023-09-23T04:42:25.371Z,12.38
2023-09-23T04:44:51.935Z,12.13
2023-09-23T04:47:20.791Z,15.40
2023-09-23T04:49:47.679Z,16.42
2023-09-23T04:52:16.736Z,14.20
2023-09-23T04:54:44.982Z,14.80
2023-09-23T04:57:11.534Z,15.65
2023-09-23T04:59:38.216Z,14.68
2023-09-23T05:02:04.853Z,16.95
2023-09-23T05:04:31.977Z,16.85
2023-09-23T05:06:58.632Z,15.25
2023-09-23T05:09:26.904Z,15.95
2023-09-23T05:11:53.804Z,17.13
2023-09-23T05:14:20.680Z,17.48
2023-09-23T05:16:47.277Z,16.95
2023-09-23T05:19:13.873Z,20.83
2023-09-23T05:21:40.440Z,20.42
2023-09-23T05:24:10.840Z,20.00
2023-09-23T05:26:37.367Z,21.80
2023-09-23T05:29:04.173Z,20.48
2023-09-23T05:31:30.769Z,25.80
2023-09-23T05:33:57.390Z,28.90
2023-09-23T05:36:23.929Z,28.40
2023-09-23T05:38:50.475Z,30.23
2023-09-23T05:41:17.095Z,34.95
2023-09-23T05:43:43.644Z,30.30
2023-09-23T05:46:12.550Z,32.88
2023-09-23T05:48:39.174Z,43.58
2023-09-23T05:51:09.162Z,40.38
2023-09-23T05:53:35.765Z,40.63
2023-09-23T05:56:02.366Z,42.53
2023-09-23T05:58:28.957Z,40.55
2023-09-23T06:00:55.986Z,39.92
2023-09-23T06:03:22.665Z,38.50
2023-09-23T06:05:49.287Z,38.30
2023-09-23T06:08:15.930Z,47.22
2023-09-23T06:10:42.506Z,41.90
2023-09-23T06:13:10.577Z,43.88
2023-09-23T06:15:37.123Z,45.78
2023-09-23T06:18:04.539Z,47.67
2023-09-23T06:20:31.206Z,44.22
2023-09-23T06:22:58.137Z,42.10
2023-09-23T06:25:24.761Z,45.03
2023-09-23T06:27:51.316Z,46.67
2023-09-23T06:30:19.210Z,40.65
2023-09-23T06:32:46.009Z,45.92
2023-09-23T06:35:12.756Z,39.35
2023-09-23T06:37:39.419Z,38.13
2023-09-23T06:40:06.769Z,40.38
2023-09-23T06:42:33.310Z,36.53
2023-09-23T06:45:00.286Z,41.35
2023-09-23T06:47:27.337Z,42.42
2023-09-23T06:49:54.219Z,45.72
2023-09-23T06:52:20.802Z,44.80
2023-09-23T06:54:47.460Z,41.85
2023-09-23T06:57:14.472Z,41.70
2023-09-23T06:59:41.130Z,43.50
2023-09-23T07:02:07.725Z,41.72
2023-09-23T07:04:34.442Z,43.03
2023-09-23T07:07:01.076Z,44.05
2023-09-23T07:09:29.464Z,43.30
2023-09-23T07:11:56.265Z,41.50
2023-09-23T07:14:22.906Z,40.03
2023-09-23T07:16:49.580Z,38.83
2023-09-23T07:19:16.219Z,42.75
2023-09-23T07:21:42.707Z,36.40
2023-09-23T07:24:11.097Z,36.78
2023-09-23T07:26:40.193Z,41.47
2023-09-23T07:29:06.857Z,38.97
2023-09-23T07:31:33.407Z,36.25
2023-09-23T07:34:00.055Z,37.20
2023-09-23T07:36:26.794Z,36.53
2023-09-23T07:38:53.342Z,33.05
2023-09-23T07:41:20.026Z,30.60
2023-09-23T07:43:48.025Z,34.38
2023-09-23T07:46:14.835Z,33.88
2023-09-23T07:48:41.508Z,32.85
2023-09-23T07:51:09.924Z,26.38
2023-09-23T07:53:36.483Z,34.42
2023-09-23T07:56:03.131Z,32.30
2023-09-23T07:58:29.718Z,33.35
2023-09-23T08:00:56.388Z,27.60
2023-09-23T08:03:27.752Z,30.58
2023-09-23T08:05:54.983Z,27.67
2023-09-23T08:08:21.596Z,27.73
2023-09-23T08:10:50.869Z,32.95
2023-09-23T08:13:18.982Z,33.10
2023-09-23T08:15:47.069Z,29.88
2023-09-23T08:18:13.970Z,30.08
2023-09-23T08:20:41.062Z,30.23
2023-09-23T08:23:07.877Z,26.50
2023-09-23T08:25:35.290Z,26.45
2023-09-23T08:28:02.513Z,24.63
2023-09-23T08:30:29.126Z,24.00
2023-09-23T08:32:56.300Z,23.75
2023-09-23T08:35:23.076Z,24.50
2023-09-23T08:37:49.823Z,22.90
2023-09-23T08:40:20.539Z,20.25
2023-09-23T08:42:53.826Z,22.45
2023-09-23T08:45:23.421Z,25.48
2023-09-23T08:47:49.985Z,19.25
2023-09-23T08:50:16.824Z,21.58
2023-09-23T08:52:43.577Z,25.13
2023-09-23T08:55:12.102Z,17.90
2023-09-23T08:57:38.672Z,19.25
2023-09-23T09:00:09.748Z,20.98
2023-09-23T09:02:36.550Z,21.75
2023-09-23T09:05:03.434Z,17.42
2023-09-23T09:07:37.529Z,18.98
2023-09-23T09:10:05.281Z,18.13
2023-09-23T09:12:32.385Z,20.50
2023-09-23T09:14:59.083Z,17.30
2023-09-23T09:17:25.647Z,17.35
2023-09-23T09:19:52.328Z,17.73
2023-09-23T09:22:20.730Z,18.08
2023-09-23T09:24:50.239Z,17.23
2023-09-23T09:27:17.182Z,17.95
2023-09-23T09:29:44.465Z,17.85
2023-09-23T09:32:12.058Z,15.52
2023-09-23T09:34:48.665Z,17.77
2023-09-23T09:37:16.201Z,16.17
2023-09-23T09:39:52.544Z,13.13
2023-09-23T09:42:28.471Z,12.15
2023-09-23T09:44:56.752Z,11.55
2023-09-23T09:47:23.617Z,14.35
2023-09-23T09:49:53.854Z,15.43
2023-09-23T09:52:23.081Z,17.95
2023-09-23T09:54:53.966Z,15.13
2023-09-23T09:57:23.491Z,12.55
2023-09-23T09:59:52.720Z,13.02
2023-09-23T10:02:19.854Z,9.27
2023-09-23T10:04:47.418Z,9.73
2023-09-23T10:07:13.979Z,8.32
2023-09-23T10:09:51.580Z,7.80
2023-09-23T10:12:20.931Z,9.50
2023-09-23T10:14:55.310Z,12.05
2023-09-23T10:17:30.317Z,9.27
2023-09-23T10:19:57.376Z,7.35
2023-09-23T10:22:25.048Z,10.85
2023-09-23T10:25:05.761Z,7.85
2023-09-23T10:27:33.570Z,8.93
2023-09-23T10:30:01.799Z,7.45
2023-09-23T10:32:29.570Z,8.45
2023-09-23T10:34:57.207Z,8.05
2023-09-23T10:37:28.079Z,11.48
2023-09-23T10:39:54.736Z,9.27
2023-09-23T10:42:21.348Z,6.75
2023-09-23T10:44:49.054Z,7.43
2023-09-23T10:47:15.640Z,5.75
2023-09-23T10:49:42.286Z,6.43
2023-09-23T10:52:08.989Z,7.18
2023-09-23T10:54:37.560Z,8.57
2023-09-23T10:57:04.236Z,7.80
2023-09-23T10:59:30.880Z,7.50
2023-09-23T11:01:57.604Z,7.38
2023-09-23T11:04:24.745Z,5.80
2023-09-23T11:06:52.052Z,3.95
2023-09-23T11:09:22.352Z,4.80
2023-09-23T11:11:49.087Z,2.88
2023-09-23T11:14:15.838Z,7.55
2023-09-23T11:16:46.343Z,7.07
2023-09-23T11:19:13.018Z,7.00
2023-09-23T11:21:47.281Z,8.27
2023-09-23T11:24:14.694Z,5.22
2023-09-23T11:26:42.242Z,5.22
2023-09-23T11:29:09.076Z,4.93
2023-09-23T11:31:35.722Z,5.65
2023-09-23T11:34:02.823Z,5.63
2023-09-23T11:36:29.502Z,4.47
2023-09-23T11:38:56.146Z,4.18
2023-09-23T11:41:22.829Z,6.63
2023-09-23T11:43:51.509Z,5.57
2023-09-23T11:46:23.359Z,7.72
2023-09-23T11:48:50.024Z,5.72
2023-09-23T11:51:19.510Z,4.05
2023-09-23T11:53:46.435Z,4.55
2023-09-23T11:56:13.692Z,4.43
2023-09-23T11:58:42.982Z,3.03
2023-09-23T12:01:13.248Z,3.47
2023-09-23T12:03:39.942Z,4.95
2023-09-23T12:06:06.688Z,2.55
2023-09-23T12:08:33.297Z,3.70
2023-09-23T12:11:00.737Z,3.53
2023-09-23T12:13:27.674Z,3.70
2023-09-23T12:15:55.566Z,3.58
2023-09-23T12:18:22.110Z,11.32
2023-09-23T12:20:48.645Z,2.78
2023-09-23T12:23:16.700Z,5.40
2023-09-23T12:25:44.409Z,4.45
2023-09-23T12:28:10.966Z,4.55
2023-09-23T12:30:37.536Z,4.05
2023-09-23T12:33:04.413Z,4.15
2023-09-23T12:35:31.040Z,1.52
2023-09-23T12:37:57.698Z,5.82
2023-09-23T12:40:24.270Z,2.72
2023-09-23T12:42:50.808Z,3.28
2023-09-23T12:45:17.375Z,6.57
2023-09-23T12:47:56.024Z,4.00
2023-09-23T12:50:23.894Z,4.78
2023-09-23T12:52:50.598Z,3.45
2023-09-23T12:55:17.255Z,5.65
2023-09-23T12:57:43.914Z,5.07
2023-09-23T13:00:10.834Z,3.13
2023-09-23T13:02:37.526Z,2.47
2023-09-23T13:05:04.466Z,2.88
2023-09-23T13:07:31.130Z,4.43
2023-09-23T13:09:57.657Z,6.57
2023-09-23T13:12:24.380Z,3.83
2023-09-23T13:14:51.179Z,5.50
2023-09-23T13:17:17.809Z,4.95
2023-09-23T13:19:44.372Z,6.95
2023-09-23T13:22:11.249Z,4.03
2023-09-23T13:24:37.901Z,3.90
2023-09-23T13:27:05.221Z,2.78
2023-09-23T13:29:32.817Z,4.30
2023-09-23T13:31:59.662Z,2.75
2023-09-23T13:34:26.343Z,2.78
2023-09-23T13:36:52.874Z,4.63
2023-09-23T13:39:19.413Z,4.53
2023-09-23T13:41:46.018Z,4.50
2023-09-23T13:44:12.677Z,4.78
2023-09-23T13:46:39.419Z,2.63
2023-09-23T13:49:06.190Z,2.65
2023-09-23T13:51:33.005Z,1.98
2023-09-23T13:53:59.864Z,4.60
2023-09-23T13:56:26.526Z,4.63
2023-09-23T13:58:54.097Z,4.70
2023-09-23T14:01:21.222Z,1.65
2023-09-23T14:03:48.018Z,3.42
2023-09-23T14:06:14.656Z,3.78
2023-09-23T14:08:41.339Z,1.83
2023-09-23T14:11:08.075Z,3.63
2023-09-23T14:13:35.186Z,2.15
2023-09-23T14:16:01.794Z,2.28
2023-09-23T14:18:28.696Z,2.53
2023-09-23T14:20:56.194Z,1.52
2023-09-23T14:23:23.848Z,1.90
2023-09-23T14:25:50.476Z,2.58
2023-09-23T14:28:16.995Z,3.03
2023-09-23T14:30:44.202Z,5.13
2023-09-23T14:33:10.794Z,2.90
2023-09-23T14:35:37.488Z,2.53
2023-09-23T14:38:04.140Z,2.60
2023-09-23T14:40:30.770Z,2.30
2023-09-23T14:42:57.382Z,3.47
2023-09-23T14:45:24.288Z,4.38
2023-09-23T14:47:50.957Z,1.98
2023-09-23T14:50:17.607Z,3.47
2023-09-23T14:52:45.647Z,2.20
2023-09-23T14:55:12.582Z,2.45
2023-09-23T14:57:39.207Z,2.00
2023-09-23T15:00:06.604Z,1.50
2023-09-23T15:02:33.306Z,3.15
2023-09-23T15:05:00.038Z,3.15
2023-09-23T15:07:26.565Z,2.20
2023-09-23T15:09:53.119Z,2.42
2023-09-23T15:12:19.695Z,4.07
2023-09-23T15:14:47.622Z,1.35
2023-09-23T15:17:14.574Z,2.47
2023-09-23T15:19:41.192Z,3.08
2023-09-23T15:22:07.759Z,4.40
2023-09-23T15:24:34.430Z,2.65
2023-09-23T15:27:01.008Z,2.35
2023-09-23T15:29:28.312Z,1.35
2023-09-23T15:31:55.002Z,4.05
2023-09-23T15:34:23.687Z,4.82
2023-09-23T15:36:50.505Z,2.40
2023-09-23T15:39:17.072Z,2.85
2023-09-23T15:41:43.915Z,1.85
2023-09-23T15:44:10.662Z,1.75
2023-09-23T15:46:37.304Z,3.80
2023-09-23T15:49:04.072Z,2.28
2023-09-23T15:51:31.581Z,2.67
2023-09-23T15:53:58.867Z,3.05
2023-09-23T15:56:26.099Z,3.42
2023-09-23T15:58:54.157Z,2.72
2023-09-23T16:01:21.034Z,1.50
2023-09-23T16:03:47.802Z,2.65
2023-09-23T16:06:14.491Z,5.15
2023-09-23T16:08:41.154Z,4.95
2023-09-23T16:11:07.846Z,1.83
2023-09-23T16:13:34.428Z,6.20
2023-09-23T16:16:01.339Z,5.30
2023-09-23T16:18:28.080Z,4.32
2023-09-23T16:20:54.673Z,9.15
2023-09-23T16:23:21.199Z,4.22
2023-09-23T16:25:47.797Z,1.25
2023-09-23T16:28:14.405Z,1.58
2023-09-23T16:30:43.019Z,2.40
2023-09-23T16:33:09.794Z,6.90
2023-09-23T16:35:36.954Z,8.77
2023-09-23T16:38:03.711Z,7.93
2023-09-23T16:40:30.831Z,2.50
2023-09-23T16:42:57.501Z,2.05
2023-09-23T16:45:24.500Z,6.40
2023-09-23T16:47:51.206Z,5.95
2023-09-23T16:50:18.330Z,4.88
2023-09-23T16:52:44.979Z,3.25
2023-09-23T16:55:11.564Z,7.40
2023-09-23T16:57:38.230Z,5.38
2023-09-23T17:00:05.506Z,4.90
2023-09-23T17:02:32.182Z,4.43
2023-09-23T17:05:00.073Z,6.07
2023-09-23T17:07:26.983Z,2.17
2023-09-23T17:09:54.172Z,2.65
2023-09-23T17:12:20.820Z,2.45
2023-09-23T17:14:47.547Z,1.40
2023-09-23T17:17:14.370Z,2.83
2023-09-23T17:19:41.556Z,2.92
2023-09-23T17:22:10.228Z,2.35
2023-09-23T17:24:37.102Z,6.53
2023-09-23T17:27:04.785Z,2.17
2023-09-23T17:29:31.625Z,1.50
2023-09-23T17:31:58.208Z,2.75
2023-09-23T17:34:24.985Z,3.70
2023-09-23T17:36:51.905Z,6.63
2023-09-23T17:39:18.523Z,6.88
2023-09-23T17:41:45.285Z,8.43
2023-09-23T17:44:11.891Z,19.30
2023-09-23T17:46:38.536Z,22.92
2023-09-23T17:49:05.679Z,16.52
2023-09-23T17:51:32.201Z,18.33
2023-09-23T17:53:58.697Z,14.65
2023-09-23T17:56:28.426Z,7.10
2023-09-23T17:58:55.807Z,5.78
2023-09-23T18:01:22.395Z,2.45
2023-09-23T18:03:49.484Z,3.78
2023-09-23T18:06:19.202Z,4.53
2023-09-23T18:08:45.933Z,4.50
2023-09-23T18:11:12.786Z,3.00
2023-09-23T18:13:41.055Z,2.40
2023-09-23T18:16:08.756Z,1.75
2023-09-23T18:18:36.004Z,1.80
2023-09-23T18:21:02.603Z,1.23
2023-09-23T18:23:29.523Z,2.75
2023-09-23T18:25:56.369Z,2.50
2023-09-23T18:28:22.931Z,1.52
2023-09-23T18:30:49.542Z,2.70
2023-09-23T18:33:16.169Z,2.38
2023-09-23T18:35:42.799Z,2.58
2023-09-23T18:38:09.519Z,1.45
2023-09-23T18:40:36.082Z,3.10
2023-09-23T18:43:02.806Z,1.15
2023-09-23T18:45:29.370Z,3.33
2023-09-23T18:48:12.082Z,2.33
2023-09-23T18:50:42.994Z,2.63
2023-09-23T18:53:09.646Z,2.55
2023-09-23T18:55:39.378Z,2.20
2023-09-23T18:58:07.417Z,2.17
2023-09-23T19:00:36.554Z,1.73
2023-09-23T19:03:04.013Z,1.63
2023-09-23T19:05:30.949Z,3.17
2023-09-23T19:07:57.534Z,1.40
2023-09-23T19:10:24.323Z,6.18
2023-09-23T19:12:50.998Z,2.47
2023-09-23T19:15:17.810Z,3.90
2023-09-23T19:17:44.679Z,3.22
2023-09-23T19:20:11.811Z,2.38
2023-09-23T19:22:38.653Z,2.53
2023-09-23T19:25:06.641Z,2.50
2023-09-23T19:27:33.346Z,2.10
2023-09-23T19:29:59.891Z,2.08
2023-09-23T19:32:26.513Z,1.50
2023-09-23T19:34:53.165Z,3.20
2023-09-23T19:37:19.902Z,4.43
2023-09-23T19:39:46.563Z,2.60
2023-09-23T19:42:13.364Z,1.38
2023-09-23T19:44:40.025Z,2.53
2023-09-23T19:47:07.512Z,2.88
2023-09-23T19:49:35.438Z,1.90
2023-09-23T19:52:02.217Z,1.90
2023-09-23T19:54:28.826Z,2.03
2023-09-23T19:56:55.375Z,2.65
2023-09-23T19:59:22.047Z,3.35
2023-09-23T20:01:48.652Z,1.30
2023-09-23T20:04:15.322Z,4.07
2023-09-23T20:06:42.636Z,1.60
2023-09-23T20:09:10.052Z,1.33
2023-09-23T20:11:37.532Z,1.98
2023-09-23T20:14:04.195Z,1.85
2023-09-23T20:16:30.758Z,3.13
2023-09-23T20:18:58.196Z,1.05
2023-09-23T20:21:24.792Z,1.10
2023-09-23T20:23:52.636Z,1.92
2023-09-23T20:26:20.378Z,2.20
2023-09-23T20:28:46.977Z,4.22
2023-09-23T20:31:16.421Z,0.60
2023-09-23T20:33:44.004Z,1.85
2023-09-23T20:36:10.775Z,2.08
2023-09-23T20:38:38.637Z,2.25
2023-09-23T20:41:07.315Z,3.38
2023-09-23T20:43:36.091Z,4.57
2023-09-23T20:46:04.457Z,3.42
2023-09-23T20:48:31.736Z,2.58
2023-09-23T20:50:58.426Z,2.97
2023-09-23T20:53:25.354Z,2.55
2023-09-23T20:55:51.989Z,2.42
2023-09-23T20:58:19.373Z,2.50
2023-09-23T21:00:46.160Z,4.40
2023-09-23T21:03:14.296Z,3.10
2023-09-23T21:05:43.833Z,3.53
2023-09-23T21:08:11.397Z,3.22
2023-09-23T21:10:38.204Z,4.25
2023-09-23T21:13:05.241Z,2.50
2023-09-23T21:15:32.295Z,2.60
2023-09-23T21:18:02.074Z,2.92
2023-09-23T21:20:29.112Z,3.35
2023-09-23T21:22:55.805Z,4.25
2023-09-23T21:25:22.872Z,5.82
2023-09-23T21:27:49.507Z,3.30
2023-09-23T21:30:17.579Z,4.53
2023-09-23T21:32:44.489Z,4.22
2023-09-23T21:35:11.141Z,4.03
2023-09-23T21:37:37.729Z,3.67
2023-09-23T21:40:04.656Z,4.75
2023-09-23T21:42:31.380Z,4.00
2023-09-23T21:44:59.082Z,3.90
2023-09-23T21:47:26.108Z,7.32
2023-09-23T21:49:52.810Z,5.45
2023-09-23T21:52:19.374Z,3.95
2023-09-23T21:54:46.002Z,4.90
2023-09-23T21:57:12.617Z,5.55
2023-09-23T21:59:39.287Z,3.72
2023-09-23T22:02:07.363Z,5.80
2023-09-23T22:04:34.056Z,4.80
2023-09-23T22:07:00.659Z,6.57
2023-09-23T22:09:29.316Z,4.20
2023-09-23T22:11:55.894Z,5.18
2023-09-23T22:14:22.535Z,5.95
2023-09-23T22:16:49.139Z,4.85
2023-09-23T22:19:15.664Z,6.93
2023-09-23T22:21:43.651Z,7.90
2023-09-23T22:24:10.247Z,4.35
2023-09-23T22:26:37.856Z,7.32
2023-09-23T22:29:10.013Z,4.95
2023-09-23T22:31:36.854Z,4.43
2023-09-23T22:34:04.232Z,6.40
2023-09-23T22:36:31.044Z,6.05
2023-09-23T22:38:57.727Z,4.55
2023-09-23T22:41:24.317Z,5.18
2023-09-23T22:43:50.944Z,7.35
2023-09-23T22:46:17.503Z,8.15
2023-09-23T22:48:44.485Z,4.40
2023-09-23T22:51:10.999Z,7.00
2023-09-23T22:53:37.795Z,5.70
2023-09-23T22:56:07.826Z,3.88
2023-09-23T22:58:34.576Z,5.00
2023-09-23T23:01:01.605Z,6.75
2023-09-23T23:03:28.829Z,7.82
2023-09-23T23:05:57.945Z,6.97
2023-09-23T23:08:26.118Z,3.60
2023-09-23T23:10:52.951Z,28.17
2023-09-23T23:13:19.449Z,30.17
2023-09-23T23:15:49.715Z,57.65
2023-09-23T23:18:16.313Z,34.22
2023-09-23T23:20:45.047Z,25.08
2023-09-23T23:23:11.622Z,37.97
2023-09-23T23:25:38.366Z,19.67
2023-09-23T23:28:05.723Z,15.18
2023-09-23T23:30:32.298Z,7.70
2023-09-23T23:32:59.029Z,4.22
2023-09-23T23:35:29.090Z,3.50
2023-09-23T23:37:55.683Z,5.68
2023-09-23T23:40:23.556Z,6.00
2023-09-23T23:42:52.792Z,4.43
2023-09-23T23:45:22.935Z,6.90
2023-09-23T23:47:53.845Z,3.67
2023-09-23T23:50:21.575Z,3.88
2023-09-23T23:52:50.163Z,4.65
2023-09-23T23:55:17.521Z,2.72
2023-09-23T23:57:45.926Z,3.88
